This is the latest recevied weather packets stored in our database for station/object N9BSW. If no packets are shown the sender has not sent any weather packets the latest 10 day(s).
| Time | Temp. | Humidity | Pressure | Rain* | Wind** | Luminosity | Snow |
|---|---|---|---|---|---|---|---|
| 1777915869 | 21.11° C | 55% | 1006.7 hPa | 0 mm | - | 343 W/m² | - |
| 1777915565 | 21.67° C | 54% | 1006.9 hPa | 0 mm | - | 376 W/m² | - |
| 1777915262 | 21.11° C | 58% | 1006.8 hPa | 0 mm | - | 549 W/m² | - |
| 1777914958 | 20.56° C | 59% | 1006.9 hPa | 0 mm | - | 410 W/m² | - |
| 1777914656 | 19.44° C | 61% | 1006.6 hPa | 0 mm | - | 448 W/m² | - |
| 1777914351 | 19.44° C | 62% | 1006.9 hPa | 0 mm | - | 298 W/m² | - |
| 1777914049 | 19.44° C | 62% | 1006.8 hPa | 0 mm | - | 261 W/m² | - |
| 1777913744 | 19.44° C | 62% | 1006.7 hPa | 0 mm | - | 255 W/m² | - |
| 1777913442 | 19.44° C | 61% | 1007.4 hPa | 0 mm | - | 210 W/m² | - |
| 1777913138 | 20.56° C | 57% | 1007.6 hPa | 0 mm | - | 193 W/m² | - |
| 1777912835 | 20.56° C | 57% | 1007.4 hPa | 0 mm | - | 265 W/m² | - |
| 1777912531 | 20.56° C | 55% | 1007.4 hPa | 0 mm | - | 324 W/m² | - |
| 1777912227 | 20.56° C | 55% | 1007.6 hPa | 0 mm | - | 341 W/m² | - |
| 1777911924 | 21.11° C | 55% | 1007.6 hPa | 0 mm | - | 370 W/m² | - |
| 1777911620 | 21.11° C | 55% | 1007.4 hPa | 0 mm | - | 378 W/m² | - |
| 1777911316 | 21.11° C | 55% | 1007.7 hPa | 0 mm | - | 442 W/m² | - |
| 1777911015 | 20.56° C | 57% | 1007.2 hPa | 0 mm | - | 466 W/m² | - |
| 1777910712 | 20.56° C | 56% | 1007.3 hPa | 0 mm | - | 416 W/m² | - |
| 1777910408 | 20.56° C | 56% | 1007.6 hPa | 0 mm | - | 284 W/m² | - |
| 1777910104 | 21.11° C | 56% | 1007.4 hPa | 0 mm | - | 294 W/m² | - |
| 1777909802 | 21.11° C | 55% | 1007.3 hPa | 0 mm | - | 353 W/m² | - |
| 1777909498 | 20.56° C | 56% | 1007.4 hPa | 0 mm | - | 444 W/m² | - |
| 1777909196 | 20.56° C | 57% | 1007.4 hPa | 0 mm | - | 364 W/m² | - |
| 1777908894 | 20.56° C | 56% | 1007.7 hPa | 0 mm | - | 335 W/m² | - |
| 1777908591 | 21.11° C | 55% | 1007.8 hPa | 0 mm | - | 369 W/m² | - |
* Rain latest hour (hover to see other rain measurements)
** Current wind speed in m/s (hover to see current wind gust speed)